Hauptseite
METAR-TAF:

METAR-TAF

Flughäfen :

Recife, Pernambuco, Brasilien

Flughafen Recife

Breite: 08-08S, Länge: 034-55W, Höhe: 19 m

Beobachtung

Neuester Wetterbericht von vor 58 Minuten, um 22:00 UTC
Wind 7 kt aus Ost
Temperatur 26°C
Luftfeuchtigkeit 74%
Luftdruck 1012 hPa
Sichtweite 10 km oder mehr
Aufgelockert bewölkt in der Höhe von 2300 ft

METAR: SBRF 172200Z 10007KT 9999 SCT023 26/21 Q1012

Zeit: 19:58 (22:58 UTC)

Prognose

Neuester Wetterbericht von vor 7 Stunden und 58 Minuten, um 15:00 UTC
Gültige Prognose vom 17 um 18 UTC bis 18 um 18 UTC
Wind 10 kt aus Ost/Südost
Sichtweite 10 km oder mehr
Aufgelockert bewölkt in der Höhe von 2500 ft
Übergehend zu
vom 18 um 08 UTC bis 18 um 10 UTC
Wind 10 kt aus Ost

TAF: SBRF 171500Z 1718/1818 12010KT 9999 SCT025 TN25/1808Z TX29/1814Z BECMG 1808/1810 10010KT RMK PEU

Wetterbeobachtungen und Prognosen von mehr als 4000 Flughäfen (METAR und TAF Bericht).

Die verfügbaren Stationen werden durch gelbe und rote Markierungen auf der Karte dargestellt.

Führen Sie die Maus auf sie, um den Namen der Station zu sehen.

Darauf klicken, um die Beobachtung von Wetterbeobachtungen und Prognosen zu sehen.

Um die Karte zu ändern : klicken Sie auf den grünen Tasten mit einem schwarzen Kreuz Zum Vergrößern, auf den grünen Button mit einem Gedankenstrich zu verkleinern, oder auf die grünen Pfeile für benachbarte Karten.


METAR-TAF: